sensor_id;sensor_type;location;lat;lon;timestamp;pressure;altitude;pressure_sealevel;temperature;humidity
71857;BME280;63344;46.980;28.882;2023-09-30T00:02:09;101182.50;;;13.35;nan
71857;BME280;63344;46.980;28.882;2023-09-30T00:04:39;101166.91;;;13.25;nan
71857;BME280;63344;46.980;28.882;2023-09-30T00:07:08;101173.78;;;13.32;nan
71857;BME280;63344;46.980;28.882;2023-09-30T00:09:35;101143.47;;;13.11;nan
71857;BME280;63344;46.980;28.882;2023-09-30T00:12:03;101167.84;;;13.24;nan
71857;BME280;63344;46.980;28.882;2023-09-30T00:14:30;101174.88;;;13.26;nan
71857;BME280;63344;46.980;28.882;2023-09-30T00:17:00;101172.38;;;13.22;nan
71857;BME280;63344;46.980;28.882;2023-09-30T00:19:28;101176.78;;;13.23;nan
71857;BME280;63344;46.980;28.882;2023-09-30T00:22:01;101163.16;;;13.08;nan
71857;BME280;63344;46.980;28.882;2023-09-30T00:24:29;101165.13;;;13.03;nan
71857;BME280;63344;46.980;28.882;2023-09-30T00:26:57;101166.78;;;13.06;nan
71857;BME280;63344;46.980;28.882;2023-09-30T00:29:24;101179.41;;;13.02;nan
71857;BME280;63344;46.980;28.882;2023-09-30T00:31:54;101178.59;;;13.00;nan
71857;BME280;63344;46.980;28.882;2023-09-30T00:34:21;101169.91;;;12.95;nan
71857;BME280;63344;46.980;28.882;2023-09-30T00:36:49;101168.13;;;12.94;nan
71857;BME280;63344;46.980;28.882;2023-09-30T00:39:16;101158.91;;;12.81;nan
71857;BME280;63344;46.980;28.882;2023-09-30T00:41:44;101140.59;;;12.71;nan
71857;BME280;63344;46.980;28.882;2023-09-30T00:44:11;101159.78;;;12.81;nan
71857;BME280;63344;46.980;28.882;2023-09-30T00:46:39;101143.31;;;12.70;nan
71857;BME280;63344;46.980;28.882;2023-09-30T00:49:08;101166.84;;;12.82;nan
71857;BME280;63344;46.980;28.882;2023-09-30T00:51:41;101160.81;;;12.77;nan
71857;BME280;63344;46.980;28.882;2023-09-30T00:54:08;101166.25;;;12.74;nan
71857;BME280;63344;46.980;28.882;2023-09-30T00:56:43;101164.59;;;12.71;nan
71857;BME280;63344;46.980;28.882;2023-09-30T00:59:13;101168.31;;;12.67;nan
71857;BME280;63344;46.980;28.882;2023-09-30T01:01:43;101170.97;;;12.67;nan
71857;BME280;63344;46.980;28.882;2023-09-30T01:04:12;101158.03;;;12.58;nan
71857;BME280;63344;46.980;28.882;2023-09-30T01:06:41;101156.47;;;12.52;nan
71857;BME280;63344;46.980;28.882;2023-09-30T01:09:08;101152.34;;;12.44;nan
71857;BME280;63344;46.980;28.882;2023-09-30T01:11:39;101173.41;;;12.50;nan
71857;BME280;63344;46.980;28.882;2023-09-30T01:14:27;101168.88;;;12.52;nan
71857;BME280;63344;46.980;28.882;2023-09-30T01:16:55;101168.88;;;12.52;nan
71857;BME280;63344;46.980;28.882;2023-09-30T01:19:23;101164.31;;;12.55;nan
71857;BME280;63344;46.980;28.882;2023-09-30T01:21:56;101154.13;;;12.43;nan
71857;BME280;63344;46.980;28.882;2023-09-30T01:24:38;101155.94;;;12.43;nan
71857;BME280;63344;46.980;28.882;2023-09-30T01:27:08;101168.31;;;12.44;nan
71857;BME280;63344;46.980;28.882;2023-09-30T01:29:37;101163.22;;;12.38;nan
71857;BME280;63344;46.980;28.882;2023-09-30T01:32:07;101158.84;;;12.37;nan
71857;BME280;63344;46.980;28.882;2023-09-30T01:34:37;101162.41;;;12.35;nan
71857;BME280;63344;46.980;28.882;2023-09-30T01:37:05;101167.75;;;12.35;nan
71857;BME280;63344;46.980;28.882;2023-09-30T01:39:33;101148.84;;;12.18;nan
71857;BME280;63344;46.980;28.882;2023-09-30T01:42:01;101165.34;;;12.28;nan
71857;BME280;63344;46.980;28.882;2023-09-30T01:44:30;101168.09;;;12.26;nan
71857;BME280;63344;46.980;28.882;2023-09-30T01:46:59;101150.78;;;12.14;nan
71857;BME280;63344;46.980;28.882;2023-09-30T01:49:26;101153.53;;;12.11;nan
71857;BME280;63344;46.980;28.882;2023-09-30T01:51:55;101145.50;;;12.13;nan
71857;BME280;63344;46.980;28.882;2023-09-30T01:54:22;101148.25;;;12.10;nan
71857;BME280;63344;46.980;28.882;2023-09-30T01:56:50;101144.91;;;12.05;nan
71857;BME280;63344;46.980;28.882;2023-09-30T01:59:17;101172.13;;;12.13;nan
71857;BME280;63344;46.980;28.882;2023-09-30T02:01:46;101147.69;;;12.02;nan
71857;BME280;63344;46.980;28.882;2023-09-30T02:04:14;101174.88;;;12.10;nan
71857;BME280;63344;46.980;28.882;2023-09-30T02:06:45;101149.53;;;12.00;nan
71857;BME280;63344;46.980;28.882;2023-09-30T02:09:12;101164.38;;;12.07;nan
71857;BME280;63344;46.980;28.882;2023-09-30T02:11:40;101170.78;;;12.01;nan
71857;BME280;63344;46.980;28.882;2023-09-30T02:14:10;101170.78;;;12.01;nan
71857;BME280;63344;46.980;28.882;2023-09-30T02:16:39;101167.13;;;12.04;nan
71857;BME280;63344;46.980;28.882;2023-09-30T02:19:06;101161.13;;;11.99;nan
71857;BME280;63344;46.980;28.882;2023-09-30T02:21:35;101166.34;;;12.00;nan
71857;BME280;63344;46.980;28.882;2023-09-30T02:24:03;101161.13;;;11.99;nan
71857;BME280;63344;46.980;28.882;2023-09-30T02:26:34;101157.50;;;12.00;nan
71857;BME280;63344;46.980;28.882;2023-09-30T02:29:01;101143.72;;;11.88;nan
71857;BME280;63344;46.980;28.882;2023-09-30T02:31:29;101160.22;;;11.98;nan
71857;BME280;63344;46.980;28.882;2023-09-30T02:33:56;101125.34;;;11.81;nan
71857;BME280;63344;46.980;28.882;2023-09-30T02:36:29;101153.28;;;11.94;nan
71857;BME280;63344;46.980;28.882;2023-09-30T02:38:56;101142.81;;;11.89;nan
71857;BME280;63344;46.980;28.882;2023-09-30T02:41:25;101147.22;;;11.90;nan
71857;BME280;63344;46.980;28.882;2023-09-30T02:43:54;101145.56;;;11.86;nan
71857;BME280;63344;46.980;28.882;2023-09-30T02:46:22;101135.28;;;11.75;nan
71857;BME280;63344;46.980;28.882;2023-09-30T02:48:49;101144.19;;;11.74;nan
71857;BME280;63344;46.980;28.882;2023-09-30T02:51:17;101111.94;;;11.59;nan
71857;BME280;63344;46.980;28.882;2023-09-30T02:53:44;101147.81;;;11.72;nan
71857;BME280;63344;46.980;28.882;2023-09-30T02:56:17;101152.09;;;11.76;nan
71857;BME280;63344;46.980;28.882;2023-09-30T02:58:46;101151.63;;;11.65;nan
71857;BME280;63344;46.980;28.882;2023-09-30T03:01:15;101154.16;;;11.68;nan
71857;BME280;63344;46.980;28.882;2023-09-30T03:03:46;101144.28;;;11.71;nan
71857;BME280;63344;46.980;28.882;2023-09-30T03:06:14;101152.31;;;11.70;nan
71857;BME280;63344;46.980;28.882;2023-09-30T03:08:42;101146.25;;;11.66;nan
71857;BME280;63344;46.980;28.882;2023-09-30T03:11:11;101139.28;;;11.62;nan
71857;BME280;63344;46.980;28.882;2023-09-30T03:13:43;101131.59;;;11.54;nan
71857;BME280;63344;46.980;28.882;2023-09-30T03:16:14;101156.94;;;11.65;nan
71857;BME280;63344;46.980;28.882;2023-09-30T03:18:44;101150.81;;;11.63;nan
71857;BME280;63344;46.980;28.882;2023-09-30T03:21:14;101143.91;;;11.57;nan
71857;BME280;63344;46.980;28.882;2023-09-30T03:23:43;101154.59;;;11.55;nan
71857;BME280;63344;46.980;28.882;2023-09-30T03:26:15;101143.13;;;11.53;nan
71857;BME280;63344;46.980;28.882;2023-09-30T03:28:43;101142.53;;;11.45;nan
71857;BME280;63344;46.980;28.882;2023-09-30T03:31:19;101151.44;;;11.44;nan
71857;BME280;63344;46.980;28.882;2023-09-30T03:33:51;101138.28;;;11.40;nan
71857;BME280;63344;46.980;28.882;2023-09-30T03:36:22;101147.09;;;11.42;nan
71857;BME280;63344;46.980;28.882;2023-09-30T03:38:53;101118.63;;;11.19;nan
71857;BME280;63344;46.980;28.882;2023-09-30T03:41:24;101134.47;;;11.22;nan
71857;BME280;63344;46.980;28.882;2023-09-30T03:43:52;101123.88;;;11.20;nan
71857;BME280;63344;46.980;28.882;2023-09-30T03:46:21;101151.03;;;11.30;nan
71857;BME280;63344;46.980;28.882;2023-09-30T03:48:51;101137.16;;;11.20;nan
71857;BME280;63344;46.980;28.882;2023-09-30T03:51:23;101158.13;;;11.29;nan
71857;BME280;63344;46.980;28.882;2023-09-30T03:53:53;101145.00;;;11.25;nan
71857;BME280;63344;46.980;28.882;2023-09-30T03:56:38;101150.31;;;11.25;nan
71857;BME280;63344;46.980;28.882;2023-09-30T03:59:10;101150.38;;;11.23;nan
71857;BME280;63344;46.980;28.882;2023-09-30T04:01:38;101139.13;;;11.15;nan
71857;BME280;63344;46.980;28.882;2023-09-30T04:04:10;101140.19;;;11.09;nan
71857;BME280;63344;46.980;28.882;2023-09-30T04:06:40;101147.06;;;11.16;nan
71857;BME280;63344;46.980;28.882;2023-09-30T04:09:12;101154.22;;;11.14;nan
71857;BME280;63344;46.980;28.882;2023-09-30T04:11:40;101153.22;;;11.17;nan
71857;BME280;63344;46.980;28.882;2023-09-30T04:14:11;101162.03;;;11.19;nan
71857;BME280;63344;46.980;28.882;2023-09-30T04:16:38;101136.72;;;11.07;nan
71857;BME280;63344;46.980;28.882;2023-09-30T04:19:07;101131.38;;;11.07;nan
71857;BME280;63344;46.980;28.882;2023-09-30T04:21:37;101151.47;;;11.16;nan
71857;BME280;63344;46.980;28.882;2023-09-30T04:24:07;101155.63;;;11.25;nan
71857;BME280;63344;46.980;28.882;2023-09-30T04:26:35;101142.56;;;11.19;nan
71857;BME280;63344;46.980;28.882;2023-09-30T04:29:02;101150.97;;;11.31;nan
71857;BME280;63344;46.980;28.882;2023-09-30T04:31:39;101148.28;;;11.33;nan
71857;BME280;63344;46.980;28.882;2023-09-30T04:34:16;101155.09;;;11.40;nan
71857;BME280;63344;46.980;28.882;2023-09-30T04:36:43;101133.34;;;11.29;nan
71857;BME280;63344;46.980;28.882;2023-09-30T04:39:12;101139.34;;;11.34;nan
71857;BME280;63344;46.980;28.882;2023-09-30T04:41:40;101148.66;;;11.47;nan
71857;BME280;63344;46.980;28.882;2023-09-30T04:44:12;101159.81;;;11.59;nan
71857;BME280;63344;46.980;28.882;2023-09-30T04:46:41;101162.16;;;11.68;nan
71857;BME280;63344;46.980;28.882;2023-09-30T04:49:14;101148.91;;;11.66;nan
71857;BME280;63344;46.980;28.882;2023-09-30T04:51:42;101136.56;;;11.64;nan
71857;BME280;63344;46.980;28.882;2023-09-30T04:54:40;101165.00;;;11.88;nan
71857;BME280;63344;46.980;28.882;2023-09-30T04:57:12;101155.25;;;11.87;nan
71857;BME280;63344;46.980;28.882;2023-09-30T04:59:40;101145.41;;;11.91;nan
71857;BME280;63344;46.980;28.882;2023-09-30T05:02:10;101172.81;;;12.18;nan
71857;BME280;63344;46.980;28.882;2023-09-30T05:04:38;101155.94;;;12.19;nan
71857;BME280;63344;46.980;28.882;2023-09-30T05:07:05;101151.31;;;12.24;nan
71857;BME280;63344;46.980;28.882;2023-09-30T05:09:34;101170.31;;;12.39;nan
71857;BME280;63344;46.980;28.882;2023-09-30T05:12:02;101166.16;;;12.53;nan
71857;BME280;63344;46.980;28.882;2023-09-30T05:14:39;101163.28;;;12.60;nan
71857;BME280;63344;46.980;28.882;2023-09-30T05:17:10;101166.34;;;12.72;nan
71857;BME280;63344;46.980;28.882;2023-09-30T05:19:40;101135.41;;;12.68;nan
71857;BME280;63344;46.980;28.882;2023-09-30T05:22:07;101151.59;;;12.86;nan
71857;BME280;63344;46.980;28.882;2023-09-30T05:24:35;101164.13;;;13.06;nan
71857;BME280;63344;46.980;28.882;2023-09-30T05:27:03;101161.91;;;13.17;nan
71857;BME280;63344;46.980;28.882;2023-09-30T05:29:36;101138.16;;;13.11;nan
71857;BME280;63344;46.980;28.882;2023-09-30T05:32:03;101154.22;;;13.31;nan
71857;BME280;63344;46.980;28.882;2023-09-30T05:34:31;101171.94;;;13.54;nan
71857;BME280;63344;46.980;28.882;2023-09-30T05:36:58;101161.13;;;13.58;nan
71857;BME280;63344;46.980;28.882;2023-09-30T05:39:26;101173.50;;;13.81;nan
71857;BME280;63344;46.980;28.882;2023-09-30T05:41:55;101157.31;;;13.84;nan
71857;BME280;63344;46.980;28.882;2023-09-30T05:44:39;101170.47;;;14.09;nan
71857;BME280;63344;46.980;28.882;2023-09-30T05:47:17;101162.91;;;14.19;nan
71857;BME280;63344;46.980;28.882;2023-09-30T05:49:47;101175.38;;;14.39;nan
71857;BME280;63344;46.980;28.882;2023-09-30T05:52:16;101148.78;;;14.35;nan
71857;BME280;63344;46.980;28.882;2023-09-30T05:54:44;101175.28;;;14.61;nan
71857;BME280;63344;46.980;28.882;2023-09-30T05:57:13;101144.22;;;14.58;nan
71857;BME280;63344;46.980;28.882;2023-09-30T05:59:46;101154.59;;;14.83;nan
71857;BME280;63344;46.980;28.882;2023-09-30T06:02:23;101139.19;;;14.88;nan
71857;BME280;63344;46.980;28.882;2023-09-30T06:04:51;101177.03;;;15.17;nan
71857;BME280;63344;46.980;28.882;2023-09-30T06:07:34;101159.00;;;15.21;nan
71857;BME280;63344;46.980;28.882;2023-09-30T06:10:02;101161.78;;;15.37;nan
71857;BME280;63344;46.980;28.882;2023-09-30T06:12:33;101144.22;;;15.31;nan
71857;BME280;63344;46.980;28.882;2023-09-30T06:15:01;101178.28;;;15.64;nan
71857;BME280;63344;46.980;28.882;2023-09-30T06:17:31;101162.03;;;15.67;nan
71857;BME280;63344;46.980;28.882;2023-09-30T06:20:00;101147.53;;;15.71;nan
71857;BME280;63344;46.980;28.882;2023-09-30T06:22:37;101152.16;;;15.86;nan
71857;BME280;63344;46.980;28.882;2023-09-30T06:25:05;101168.03;;;16.07;nan
71857;BME280;63344;46.980;28.882;2023-09-30T06:27:33;101159.66;;;16.13;nan
71857;BME280;63344;46.980;28.882;2023-09-30T06:30:02;101175.63;;;16.32;nan
71857;BME280;63344;46.980;28.882;2023-09-30T06:32:32;101168.41;;;16.50;nan
71857;BME280;63344;46.980;28.882;2023-09-30T06:35:01;101169.28;;;16.66;nan
71857;BME280;63344;46.980;28.882;2023-09-30T06:37:30;101162.88;;;16.69;nan
71857;BME280;63344;46.980;28.882;2023-09-30T06:39:57;101178.84;;;16.88;nan
71857;BME280;63344;46.980;28.882;2023-09-30T06:42:25;101170.38;;;16.96;nan
71857;BME280;63344;46.980;28.882;2023-09-30T06:44:53;101163.59;;;17.04;nan
71857;BME280;63344;46.980;28.882;2023-09-30T06:47:21;101168.75;;;17.23;nan
71857;BME280;63344;46.980;28.882;2023-09-30T06:49:48;101161.16;;;17.31;nan
71857;BME280;63344;46.980;28.882;2023-09-30T06:52:16;101163.13;;;17.44;nan
71857;BME280;63344;46.980;28.882;2023-09-30T06:54:44;101175.38;;;17.64;nan
71857;BME280;63344;46.980;28.882;2023-09-30T06:57:11;101195.50;;;17.87;nan
71857;BME280;63344;46.980;28.882;2023-09-30T06:59:38;101163.25;;;17.87;nan
71857;BME280;63344;46.980;28.882;2023-09-30T07:02:07;101176.53;;;18.04;nan
71857;BME280;63344;46.980;28.882;2023-09-30T07:04:35;101188.28;;;18.18;nan
71857;BME280;63344;46.980;28.882;2023-09-30T07:07:04;101164.34;;;18.13;nan
71857;BME280;63344;46.980;28.882;2023-09-30T07:09:32;101159.56;;;18.18;nan
71857;BME280;63344;46.980;28.882;2023-09-30T07:11:59;101176.06;;;18.41;nan
71857;BME280;63344;46.980;28.882;2023-09-30T07:14:27;101179.91;;;18.51;nan
71857;BME280;63344;46.980;28.882;2023-09-30T07:16:55;101185.38;;;18.64;nan
71857;BME280;63344;46.980;28.882;2023-09-30T07:19:23;101172.59;;;18.67;nan
71857;BME280;63344;46.980;28.882;2023-09-30T07:21:51;101178.16;;;18.79;nan
71857;BME280;63344;46.980;28.882;2023-09-30T07:24:29;101159.91;;;18.84;nan
71857;BME280;63344;46.980;28.882;2023-09-30T07:26:59;101190.59;;;19.08;nan
71857;BME280;63344;46.980;28.882;2023-09-30T07:29:26;101150.53;;;19.04;nan
71857;BME280;63344;46.980;28.882;2023-09-30T07:31:54;101180.13;;;19.31;nan
71857;BME280;63344;46.980;28.882;2023-09-30T07:34:21;101158.50;;;19.33;nan
71857;BME280;63344;46.980;28.882;2023-09-30T07:36:49;101170.94;;;19.48;nan
71857;BME280;63344;46.980;28.882;2023-09-30T07:39:17;101158.88;;;19.54;nan
71857;BME280;63344;46.980;28.882;2023-09-30T07:41:45;101154.59;;;19.64;nan
71857;BME280;63344;46.980;28.882;2023-09-30T07:44:12;101157.88;;;19.82;nan
71857;BME280;63344;46.980;28.882;2023-09-30T07:46:40;101161.34;;;19.97;nan
71857;BME280;63344;46.980;28.882;2023-09-30T07:49:09;101161.47;;;20.08;nan
71857;BME280;63344;46.980;28.882;2023-09-30T07:51:37;101170.84;;;20.28;nan
71857;BME280;63344;46.980;28.882;2023-09-30T07:54:07;101175.34;;;20.40;nan
71857;BME280;63344;46.980;28.882;2023-09-30T07:56:54;101152.69;;;20.43;nan
71857;BME280;63344;46.980;28.882;2023-09-30T07:59:22;101167.78;;;20.58;nan
71857;BME280;63344;46.980;28.882;2023-09-30T08:01:50;101166.72;;;20.74;nan
71857;BME280;63344;46.980;28.882;2023-09-30T08:04:17;101167.53;;;20.87;nan
71857;BME280;63344;46.980;28.882;2023-09-30T08:06:45;101176.22;;;21.03;nan
71857;BME280;63344;46.980;28.882;2023-09-30T08:09:13;101152.13;;;21.00;nan
71857;BME280;63344;46.980;28.882;2023-09-30T08:11:41;101182.88;;;21.35;nan
71857;BME280;63344;46.980;28.882;2023-09-30T08:14:09;101162.22;;;21.46;nan
71857;BME280;63344;46.980;28.882;2023-09-30T08:16:38;101173.41;;;21.77;nan
71857;BME280;63344;46.980;28.882;2023-09-30T08:19:06;101165.81;;;21.94;nan
71857;BME280;63344;46.980;28.882;2023-09-30T08:21:34;101147.84;;;22.94;nan
71857;BME280;63344;46.980;28.882;2023-09-30T08:24:02;101162.75;;;24.89;nan
71857;BME280;63344;46.980;28.882;2023-09-30T08:26:30;101148.94;;;26.74;nan
71857;BME280;63344;46.980;28.882;2023-09-30T08:28:57;101167.41;;;28.58;nan
71857;BME280;63344;46.980;28.882;2023-09-30T08:31:25;101143.69;;;29.67;nan
71857;BME280;63344;46.980;28.882;2023-09-30T08:33:53;101160.94;;;30.73;nan
71857;BME280;63344;46.980;28.882;2023-09-30T08:36:21;101145.16;;;31.61;nan
71857;BME280;63344;46.980;28.882;2023-09-30T08:38:48;101144.22;;;32.36;nan
71857;BME280;63344;46.980;28.882;2023-09-30T08:41:32;101147.03;;;33.45;nan
71857;BME280;63344;46.980;28.882;2023-09-30T08:44:01;101148.38;;;34.34;nan
71857;BME280;63344;46.980;28.882;2023-09-30T08:46:31;101149.00;;;35.19;nan
71857;BME280;63344;46.980;28.882;2023-09-30T08:49:14;101135.63;;;35.89;nan
71857;BME280;63344;46.980;28.882;2023-09-30T08:51:42;101120.41;;;36.45;nan
71857;BME280;63344;46.980;28.882;2023-09-30T08:54:10;101127.25;;;36.88;nan
71857;BME280;63344;46.980;28.882;2023-09-30T08:56:38;101154.03;;;37.39;nan
71857;BME280;63344;46.980;28.882;2023-09-30T08:59:09;101134.66;;;37.64;nan
71857;BME280;63344;46.980;28.882;2023-09-30T09:01:37;101128.97;;;38.03;nan
71857;BME280;63344;46.980;28.882;2023-09-30T09:04:06;101132.78;;;38.09;nan
71857;BME280;63344;46.980;28.882;2023-09-30T09:06:34;101123.41;;;38.03;nan
71857;BME280;63344;46.980;28.882;2023-09-30T09:09:17;101128.59;;;38.36;nan
71857;BME280;63344;46.980;28.882;2023-09-30T09:11:46;101135.31;;;38.47;nan
71857;BME280;63344;46.980;28.882;2023-09-30T09:14:14;101126.72;;;38.85;nan
71857;BME280;63344;46.980;28.882;2023-09-30T09:16:53;101120.44;;;39.51;nan
71857;BME280;63344;46.980;28.882;2023-09-30T09:19:21;101122.03;;;39.94;nan
71857;BME280;63344;46.980;28.882;2023-09-30T09:21:58;101125.16;;;40.21;nan
71857;BME280;63344;46.980;28.882;2023-09-30T09:24:33;101127.69;;;39.52;nan
71857;BME280;63344;46.980;28.882;2023-09-30T09:27:09;101119.44;;;38.54;nan
71857;BME280;63344;46.980;28.882;2023-09-30T09:29:37;101115.22;;;38.82;nan
71857;BME280;63344;46.980;28.882;2023-09-30T09:32:09;101119.50;;;39.38;nan
71857;BME280;63344;46.980;28.882;2023-09-30T09:34:38;101105.94;;;39.60;nan
71857;BME280;63344;46.980;28.882;2023-09-30T09:37:19;101110.06;;;39.93;nan
71857;BME280;63344;46.980;28.882;2023-09-30T09:39:55;101112.09;;;39.20;nan
71857;BME280;63344;46.980;28.882;2023-09-30T09:42:32;101083.19;;;39.52;nan
71857;BME280;63344;46.980;28.882;2023-09-30T09:45:05;101104.72;;;39.92;nan
71857;BME280;63344;46.980;28.882;2023-09-30T09:47:33;101093.16;;;38.20;nan
71857;BME280;63344;46.980;28.882;2023-09-30T09:50:03;101100.75;;;36.60;nan
71857;BME280;63344;46.980;28.882;2023-09-30T09:52:47;101083.97;;;36.55;nan
71857;BME280;63344;46.980;28.882;2023-09-30T09:55:20;101079.75;;;36.46;nan
71857;BME280;63344;46.980;28.882;2023-09-30T09:57:49;101071.88;;;35.31;nan
71857;BME280;63344;46.980;28.882;2023-09-30T10:00:25;101071.97;;;34.28;nan
71857;BME280;63344;46.980;28.882;2023-09-30T10:02:54;101071.88;;;34.56;nan
71857;BME280;63344;46.980;28.882;2023-09-30T10:05:21;101064.91;;;33.27;nan
71857;BME280;63344;46.980;28.882;2023-09-30T10:10:19;101069.25;;;32.12;nan
71857;BME280;63344;46.980;28.882;2023-09-30T10:12:48;101054.97;;;31.49;nan
71857;BME280;63344;46.980;28.882;2023-09-30T10:18:00;101060.00;;;30.68;nan
71857;BME280;63344;46.980;28.882;2023-09-30T10:20:31;101048.81;;;29.99;nan
71857;BME280;63344;46.980;28.882;2023-09-30T10:23:19;101063.47;;;29.42;nan
71857;BME280;63344;46.980;28.882;2023-09-30T10:26:14;101056.13;;;29.34;nan
71857;BME280;63344;46.980;28.882;2023-09-30T10:28:46;101057.78;;;28.94;nan
71857;BME280;63344;46.980;28.882;2023-09-30T10:31:49;101055.16;;;28.52;nan
71857;BME280;63344;46.980;28.882;2023-09-30T10:34:21;101049.53;;;28.19;nan
71857;BME280;63344;46.980;28.882;2023-09-30T10:36:49;101006.38;;;27.62;nan
71857;BME280;63344;46.980;28.882;2023-09-30T10:39:57;101023.50;;;27.72;nan
71857;BME280;63344;46.980;28.882;2023-09-30T10:42:48;101024.34;;;27.73;nan
71857;BME280;63344;46.980;28.882;2023-09-30T10:53:43;101022.53;;;27.55;nan
71857;BME280;63344;46.980;28.882;2023-09-30T10:56:15;100995.56;;;27.26;nan
71857;BME280;63344;46.980;28.882;2023-09-30T10:58:46;101021.81;;;27.27;nan
71857;BME280;63344;46.980;28.882;2023-09-30T11:01:21;101009.91;;;27.28;nan
71857;BME280;63344;46.980;28.882;2023-09-30T11:03:55;101008.78;;;27.21;nan
71857;BME280;63344;46.980;28.882;2023-09-30T11:07:02;101014.53;;;27.18;nan
71857;BME280;63344;46.980;28.882;2023-09-30T11:09:35;101019.44;;;27.24;nan
71857;BME280;63344;46.980;28.882;2023-09-30T11:12:13;101008.88;;;27.11;nan
71857;BME280;63344;46.980;28.882;2023-09-30T11:14:42;101005.53;;;26.99;nan
71857;BME280;63344;46.980;28.882;2023-09-30T11:17:30;100985.31;;;26.84;nan
71857;BME280;63344;46.980;28.882;2023-09-30T11:20:02;101001.44;;;26.77;nan
71857;BME280;63344;46.980;28.882;2023-09-30T11:22:33;100996.38;;;26.65;nan
71857;BME280;63344;46.980;28.882;2023-09-30T11:25:02;100984.66;;;26.54;nan
71857;BME280;63344;46.980;28.882;2023-09-30T11:27:30;100995.06;;;26.69;nan
71857;BME280;63344;46.980;28.882;2023-09-30T11:30:02;100995.75;;;26.71;nan
71857;BME280;63344;46.980;28.882;2023-09-30T11:32:29;100975.66;;;26.72;nan
71857;BME280;63344;46.980;28.882;2023-09-30T11:34:58;100978.44;;;26.80;nan
71857;BME280;63344;46.980;28.882;2023-09-30T11:37:34;100992.78;;;26.82;nan
71857;BME280;63344;46.980;28.882;2023-09-30T11:40:18;100973.94;;;26.71;nan
71857;BME280;63344;46.980;28.882;2023-09-30T11:43:09;100987.94;;;26.76;nan
71857;BME280;63344;46.980;28.882;2023-09-30T11:45:40;100975.97;;;26.69;nan
71857;BME280;63344;46.980;28.882;2023-09-30T11:48:27;100979.47;;;26.79;nan
71857;BME280;63344;46.980;28.882;2023-09-30T11:51:05;100968.09;;;26.66;nan
71857;BME280;63344;46.980;28.882;2023-09-30T11:53:44;100942.69;;;26.47;nan
71857;BME280;63344;46.980;28.882;2023-09-30T11:56:59;100971.94;;;26.73;nan
71857;BME280;63344;46.980;28.882;2023-09-30T11:59:55;100955.72;;;26.71;nan
71857;BME280;63344;46.980;28.882;2023-09-30T12:02:56;100963.25;;;26.77;nan
71857;BME280;63344;46.980;28.882;2023-09-30T12:05:48;100936.78;;;26.52;nan
71857;BME280;63344;46.980;28.882;2023-09-30T12:08:17;100944.19;;;26.59;nan
71857;BME280;63344;46.980;28.882;2023-09-30T12:11:05;100964.03;;;26.70;nan
71857;BME280;63344;46.980;28.882;2023-09-30T12:14:07;100935.44;;;26.56;nan
71857;BME280;63344;46.980;28.882;2023-09-30T12:16:35;100941.53;;;26.68;nan
71857;BME280;63344;46.980;28.882;2023-09-30T12:19:04;100954.41;;;26.75;nan
71857;BME280;63344;46.980;28.882;2023-09-30T12:21:39;100956.13;;;26.76;nan
71857;BME280;63344;46.980;28.882;2023-09-30T12:24:32;100947.00;;;26.68;nan
71857;BME280;63344;46.980;28.882;2023-09-30T12:27:17;100944.59;;;26.65;nan
71857;BME280;63344;46.980;28.882;2023-09-30T12:29:47;100940.22;;;26.72;nan
71857;BME280;63344;46.980;28.882;2023-09-30T12:32:44;100934.06;;;26.70;nan
71857;BME280;63344;46.980;28.882;2023-09-30T12:35:38;100930.34;;;26.71;nan
71857;BME280;63344;46.980;28.882;2023-09-30T12:38:17;100929.88;;;26.75;nan
71857;BME280;63344;46.980;28.882;2023-09-30T12:41:03;100920.06;;;26.65;nan
71857;BME280;63344;46.980;28.882;2023-09-30T12:44:15;100925.81;;;26.61;nan
71857;BME280;63344;46.980;28.882;2023-09-30T12:47:07;100916.50;;;26.64;nan
71857;BME280;63344;46.980;28.882;2023-09-30T12:49:53;100914.94;;;26.61;nan
71857;BME280;63344;46.980;28.882;2023-09-30T12:52:45;100905.47;;;26.56;nan
71857;BME280;63344;46.980;28.882;2023-09-30T12:55:13;100910.72;;;26.67;nan
71857;BME280;63344;46.980;28.882;2023-09-30T12:57:46;100907.16;;;26.67;nan
71857;BME280;63344;46.980;28.882;2023-09-30T13:00:21;100904.78;;;26.72;nan
71857;BME280;63344;46.980;28.882;2023-09-30T13:03:02;100894.38;;;26.67;nan
71857;BME280;63344;46.980;28.882;2023-09-30T13:05:40;100884.56;;;26.56;nan
71857;BME280;63344;46.980;28.882;2023-09-30T13:08:45;100897.16;;;26.57;nan
71857;BME280;63344;46.980;28.882;2023-09-30T13:11:19;100891.59;;;26.59;nan
71857;BME280;63344;46.980;28.882;2023-09-30T13:14:05;100893.13;;;26.61;nan
71857;BME280;63344;46.980;28.882;2023-09-30T13:17:16;100891.78;;;26.66;nan
71857;BME280;63344;46.980;28.882;2023-09-30T13:20:05;100883.63;;;26.66;nan
71857;BME280;63344;46.980;28.882;2023-09-30T13:23:10;100883.88;;;26.72;nan
71857;BME280;63344;46.980;28.882;2023-09-30T13:25:49;100884.50;;;26.66;nan
71857;BME280;63344;46.980;28.882;2023-09-30T13:28:27;100851.19;;;26.36;nan
71857;BME280;63344;46.980;28.882;2023-09-30T13:30:56;100874.81;;;26.54;nan
71857;BME280;63344;46.980;28.882;2023-09-30T13:33:24;100839.13;;;26.39;nan
71857;BME280;63344;46.980;28.882;2023-09-30T13:35:52;100861.03;;;26.55;nan
71857;BME280;63344;46.980;28.882;2023-09-30T13:38:22;100846.03;;;26.51;nan
71857;BME280;63344;46.980;28.882;2023-09-30T13:40:50;100859.72;;;26.59;nan
71857;BME280;63344;46.980;28.882;2023-09-30T13:43:18;100841.41;;;26.52;nan